Time;durP1;ratioP1;P1;durP2;ratioP2;P2;SDS_P1;SDS_P2;PMS_P1;PMS_P2;Temp;Humidity;BMP_temperature;BMP_pressure;BME280_temperature;BME280_humidity;BME280_pressure;Samples;Min_cycle;Max_cycle;Signal;HPM_P1;HPM_P2
2022/09/04 00:00:19;;;;;;;3.53;2.90;;;;;;;17.37;66.84;68707.84;5030395;28;20045;-78
2022/09/04 00:03:00;;;;;;;5.60;2.72;;;;;;;17.36;66.69;68703.47;5025252;28;20635;-78
2022/09/04 00:05:40;;;;;;;6.80;2.50;;;;;;;17.29;67.23;68695.47;5042621;28;20048;-78
2022/09/04 00:08:27;;;;;;;3.67;2.80;;;;;;;17.28;66.87;68694.88;5039233;28;20041;-78
2022/09/04 00:10:55;;;;;;;5.45;2.92;;;;;;;;;;5031381;28;20052;-78
2022/09/04 00:13:22;;;;;;;4.43;2.80;;;;;;;;;;5044120;28;20080;-78
2022/09/04 00:16:05;;;;;;;3.50;2.38;;;;;;;17.22;67.18;68688.06;5026697;28;20042;-77
2022/09/04 00:19:06;;;;;;;5.20;2.80;;;;;;;17.16;67.40;68683.91;5047866;28;20049;-78
2022/09/04 00:21:34;;;;;;;4.63;2.78;;;;;;;;;;5050675;28;20420;-77
2022/09/04 00:24:09;;;;;;;4.57;2.93;;;;;;;;;;5025480;28;20678;-77
2022/09/04 00:26:37;;;;;;;4.40;3.30;;;;;;;;;;5039984;28;20048;-77
2022/09/04 00:29:13;;;;;;;5.45;3.05;;;;;;;16.82;69.08;68643.00;5036882;28;20048;-78
2022/09/04 00:31:47;;;;;;;4.93;2.60;;;;;;;16.74;69.38;68634.41;5036602;28;20385;-77
2022/09/04 00:34:29;;;;;;;4.50;3.05;;;;;;;16.67;69.65;68621.63;5037347;28;20500;-77
2022/09/04 00:37:00;;;;;;;3.17;2.65;;;;;;;16.63;69.62;68621.88;5044079;28;20105;-77
2022/09/04 00:39:43;;;;;;;6.57;2.80;;;;;;;16.53;70.50;68613.72;5041134;28;20132;-77
2022/09/04 00:42:33;;;;;;;3.65;2.60;;;;;;;16.50;70.50;68613.00;5030600;28;20435;-77
2022/09/04 00:45:16;;;;;;;4.22;3.00;;;;;;;16.50;70.46;68610.31;5027453;28;20373;-77
2022/09/04 00:48:16;;;;;;;5.50;2.85;;;;;;;16.47;70.31;68604.78;5028150;28;20136;-77
2022/09/04 00:51:02;;;;;;;3.97;2.65;;;;;;;;;;5053878;28;20045;-77
2022/09/04 00:53:44;;;;;;;3.85;2.63;;;;;;;16.35;70.58;68591.09;5061050;28;20041;-77
2022/09/04 00:56:28;;;;;;;5.65;3.00;;;;;;;;;;5032171;28;20127;-77
2022/09/04 00:58:54;;;;;;;4.38;2.60;;;;;;;;;;5025697;28;20042;-77
2022/09/04 01:01:25;;;;;;;4.00;2.70;;;;;;;16.29;70.88;68584.25;5034545;28;20057;-77
2022/09/04 01:03:54;;;;;;;3.85;2.80;;;;;;;;;;5024794;28;20909;-78
2022/09/04 01:06:48;;;;;;;6.18;2.92;;;;;;;16.26;71.16;68580.28;5036772;28;20041;-77
2022/09/04 01:09:21;;;;;;;3.88;2.63;;;;;;;;;;5037134;28;20061;-77
2022/09/04 01:11:49;;;;;;;3.63;2.80;;;;;;;16.14;71.22;68570.41;5032258;28;20042;-77
2022/09/04 01:14:19;;;;;;;4.57;2.80;;;;;;;16.14;71.25;68569.81;5025971;28;20046;-77
2022/09/04 01:17:02;;;;;;;4.45;2.63;;;;;;;16.14;71.36;68567.16;5037142;28;20065;-77
2022/09/04 01:19:48;;;;;;;3.70;2.90;;;;;;;;;;5020098;28;20129;-77
2022/09/04 01:22:29;;;;;;;4.68;3.00;;;;;;;15.96;72.38;68547.19;5015197;28;20116;-78
2022/09/04 01:24:57;;;;;;;4.30;3.30;;;;;;;;;;5016717;28;20042;-77
2022/09/04 01:27:42;;;;;;;5.10;2.88;;;;;;;15.86;72.98;68536.38;5028049;28;20433;-77
2022/09/04 01:30:10;;;;;;;6.57;2.90;;;;;;;15.82;72.95;68531.81;5028342;28;20041;-78
2022/09/04 01:32:47;;;;;;;5.18;3.00;;;;;;;15.79;73.06;68531.06;5030735;28;20064;-78
2022/09/04 01:35:20;;;;;;;3.95;2.70;;;;;;;15.74;73.16;68522.72;5024321;28;20664;-78
2022/09/04 01:37:54;;;;;;;5.20;3.13;;;;;;;15.68;73.56;68510.50;5019696;28;20037;-77
2022/09/04 01:40:22;;;;;;;6.03;3.10;;;;;;;15.66;73.49;68516.25;5031281;28;20094;-77
2022/09/04 01:42:58;;;;;;;5.55;3.28;;;;;;;15.59;73.62;68506.16;5030211;28;20052;-78
2022/09/04 01:45:41;;;;;;;4.53;3.10;;;;;;;15.60;73.77;68507.31;5026475;28;20164;-77
2022/09/04 01:48:09;;;;;;;3.85;3.17;;;;;;;;;;5026487;28;20038;-78
2022/09/04 01:50:37;;;;;;;5.10;2.90;;;;;;;15.59;73.75;68508.84;5027765;28;20033;-77
2022/09/04 01:53:13;;;;;;;3.90;3.10;;;;;;;15.57;73.60;68499.09;5022832;28;20033;-77
2022/09/04 01:56:24;;;;;;;8.85;3.00;;;;;;;15.60;73.41;68509.41;5027118;28;20407;-77
2022/09/04 01:58:58;;;;;;;5.53;3.00;;;;;;;15.54;73.81;68501.03;5009300;28;20045;-77
2022/09/04 02:01:37;;;;;;;3.88;3.00;;;;;;;15.50;74.00;68496.47;5025499;28;20072;-77
2022/09/04 02:04:17;;;;;;;4.55;2.78;;;;;;;15.46;74.09;68491.34;5019719;28;20049;-77
2022/09/04 02:06:51;;;;;;;4.85;3.10;;;;;;;;;;5028153;28;20096;-77
2022/09/04 02:09:57;;;;;;;4.28;2.72;;;;;;;15.39;74.48;68486.06;5030109;28;20038;-77
2022/09/04 02:12:24;;;;;;;4.53;2.95;;;;;;;;;;5014947;28;20149;-79
2022/09/04 02:15:08;;;;;;;6.75;3.10;;;;;;;15.41;73.80;68486.22;5030755;28;20033;-78
2022/09/04 02:18:12;;;;;;;4.45;2.95;;;;;;;15.36;74.46;68483.19;5027605;28;20459;-78
2022/09/04 02:20:55;;;;;;;3.85;2.90;;;;;;;15.29;75.08;68472.56;5028281;28;20037;-77
2022/09/04 02:23:34;;;;;;;4.20;3.00;;;;;;;15.26;74.97;68471.81;5017143;28;20057;-78
2022/09/04 02:26:10;;;;;;;4.65;3.20;;;;;;;15.20;75.16;68462.31;5015561;28;20033;-77
2022/09/04 02:28:54;;;;;;;4.32;2.85;;;;;;;15.15;75.24;68462.53;5029911;28;20049;-78
2022/09/04 02:31:33;;;;;;;4.65;3.35;;;;;;;15.06;76.16;68447.50;5019190;28;20042;-77
2022/09/04 02:34:24;;;;;;;3.65;3.05;;;;;;;15.04;75.77;68447.88;5028733;28;20037;-77
2022/09/04 02:37:06;;;;;;;6.05;2.90;;;;;;;15.03;75.85;68449.44;5029976;28;20504;-76
2022/09/04 02:39:59;;;;;;;7.07;3.22;;;;;;;14.96;76.40;68436.13;5029750;28;20504;-77
2022/09/04 02:42:33;;;;;;;4.93;2.92;;;;;;;;;;5027849;28;20180;-78
2022/09/04 02:45:33;;;;;;;4.45;3.30;;;;;;;14.88;76.73;68427.56;5018705;28;20045;-78
2022/09/04 02:48:23;;;;;;;5.35;3.45;;;;;;;14.85;76.66;68426.25;5028549;28;20049;-78
2022/09/04 02:51:30;;;;;;;6.75;3.60;;;;;;;14.78;77.04;68415.59;5030219;28;20059;-77
2022/09/04 02:54:08;;;;;;;5.28;3.10;;;;;;;14.72;77.28;68408.78;5039338;28;20033;-78
2022/09/04 02:57:06;;;;;;;4.88;3.08;;;;;;;14.68;77.49;68404.78;5041538;28;20049;-78
2022/09/04 02:59:47;;;;;;;5.10;3.45;;;;;;;;;;5054916;28;20037;-77
2022/09/04 03:02:23;;;;;;;6.88;3.67;;;;;;;14.69;78.35;68408.03;5028108;28;20094;-78
2022/09/04 03:05:18;;;;;;;5.07;3.50;;;;;;;14.65;77.91;68401.94;5028957;28;20037;-77
2022/09/04 03:08:13;;;;;;;6.07;3.55;;;;;;;14.62;78.14;68401.22;5026550;28;20068;-77
2022/09/04 03:10:50;;;;;;;4.80;3.30;;;;;;;14.54;78.96;68388.84;5042424;28;20037;-77
2022/09/04 03:13:24;;;;;;;5.60;3.72;;;;;;;14.46;79.39;68382.97;5029247;28;20068;-78
2022/09/04 03:15:57;;;;;;;5.05;3.47;;;;;;;14.44;79.47;68383.94;5027115;28;20111;-78
2022/09/04 03:18:31;;;;;;;5.50;3.60;;;;;;;14.38;79.50;68374.41;5028059;28;20120;-77
2022/09/04 03:21:15;;;;;;;4.90;3.97;;;;;;;14.37;79.04;68370.03;5024288;28;20042;-77
2022/09/04 03:23:59;;;;;;;6.22;4.28;;;;;;;14.33;79.53;68366.06;5033383;28;20501;-77
2022/09/04 03:26:47;;;;;;;5.88;4.00;;;;;;;14.24;80.04;68355.81;5020874;28;20041;-77
2022/09/04 03:29:29;;;;;;;5.93;3.90;;;;;;;14.19;80.31;68353.38;5020007;28;20042;-77
2022/09/04 03:32:06;;;;;;;6.25;4.13;;;;;;;14.19;80.26;68350.69;5025862;28;20103;-78
2022/09/04 03:34:40;;;;;;;6.97;3.78;;;;;;;14.18;80.59;68354.34;5042697;28;20091;-77
2022/09/04 03:37:31;;;;;;;4.72;3.85;;;;;;;14.13;80.61;68343.88;5027695;28;20053;-78
2022/09/04 03:40:17;;;;;;;4.97;4.10;;;;;;;14.12;80.48;68342.72;5016388;28;20060;-78
2022/09/04 03:42:57;;;;;;;6.90;4.10;;;;;;;14.08;80.82;68337.59;5026213;28;20411;-78
2022/09/04 03:46:00;;;;;;;6.25;4.28;;;;;;;14.08;80.92;68337.59;5027491;28;20041;-78
2022/09/04 03:48:51;;;;;;;4.28;3.72;;;;;;;13.99;81.22;68322.59;5041102;28;20038;-77
2022/09/04 03:51:31;;;;;;;5.43;4.00;;;;;;;14.00;81.01;68331.75;5026705;28;20460;-78
2022/09/04 03:54:33;;;;;;;5.32;3.90;;;;;;;13.99;80.91;68330.63;5027633;28;20042;-78
2022/09/04 03:57:02;;;;;;;5.53;3.85;;;;;;;14.01;80.82;68330.19;5026972;28;20045;-77
2022/09/04 03:59:39;;;;;;;6.85;3.97;;;;;;;13.97;81.39;68328.34;5030397;28;20038;-78
2022/09/04 04:02:11;;;;;;;4.93;3.95;;;;;;;13.99;81.04;68333.28;5025797;28;20103;-78
2022/09/04 04:04:51;;;;;;;5.50;4.00;;;;;;;13.96;81.14;68325.09;5028480;28;20049;-77
2022/09/04 04:07:53;;;;;;;6.78;4.13;;;;;;;13.93;81.46;68321.69;5026310;28;20049;-77
2022/09/04 04:10:23;;;;;;;5.35;4.10;;;;;;;13.90;81.31;68320.38;5026071;28;20623;-78
2022/09/04 04:12:49;;;;;;;5.43;3.75;;;;;;;;;;5028458;28;20037;-78
2022/09/04 04:15:36;;;;;;;5.28;3.50;;;;;;;13.98;80.42;68332.13;5027418;28;20041;-78
2022/09/04 04:18:17;;;;;;;4.97;3.85;;;;;;;14.00;80.58;68331.75;5027322;28;20058;-77
2022/09/04 04:21:00;;;;;;;4.32;3.70;;;;;;;13.96;80.65;68327.75;5027289;28;20412;-78
2022/09/04 04:24:14;;;;;;;5.07;4.10;;;;;;;13.94;81.22;68324.91;5022927;28;20053;-78
2022/09/04 04:26:51;;;;;;;5.63;4.40;;;;;;;13.92;81.30;68325.31;5038810;28;20113;-78
2022/09/04 04:29:39;;;;;;;5.53;4.78;;;;;;;13.91;81.25;68321.50;5019204;28;20115;-77
2022/09/04 04:32:24;;;;;;;8.38;4.60;;;;;;;13.82;81.43;68309.16;5024500;28;20037;-79
2022/09/04 04:35:21;;;;;;;6.43;4.43;;;;;;;13.80;81.44;68309.56;5016430;28;20632;-76
2022/09/04 04:38:24;;;;;;;5.97;4.72;;;;;;;13.77;81.77;68306.72;5028613;28;20136;-76
2022/09/04 04:41:12;;;;;;;7.18;4.30;;;;;;;13.76;81.41;68302.91;5010506;28;20048;-79
2022/09/04 04:43:57;;;;;;;7.60;4.47;;;;;;;13.77;81.49;68308.81;5040775;28;20501;-76
2022/09/04 04:46:55;;;;;;;6.50;4.32;;;;;;;13.77;81.16;68309.38;5024674;28;20068;-77
2022/09/04 04:49:56;;;;;;;7.90;4.57;;;;;;;13.81;81.00;68307.44;5023149;28;20136;-77
2022/09/04 04:52:59;;;;;;;9.65;4.47;;;;;;;13.82;81.70;68311.28;5010469;28;20121;-76
2022/09/04 04:55:39;;;;;;;7.43;4.80;;;;;;;13.81;81.32;68308.03;5026697;28;20432;-76
2022/09/04 04:58:06;;;;;;;6.82;4.53;;;;;;;13.81;81.42;68308.03;5026567;28;20115;-76
2022/09/04 05:00:35;;;;;;;9.50;4.80;;;;;;;13.80;81.39;68306.31;5023676;28;20089;-78
2022/09/04 05:03:24;;;;;;;5.45;4.40;;;;;;;13.79;81.80;68308.44;5028028;28;20052;-76
2022/09/04 05:06:01;;;;;;;5.88;4.53;;;;;;;13.80;81.46;68306.31;5037943;28;20041;-76
2022/09/04 05:08:44;;;;;;;6.53;4.15;;;;;;;13.84;81.25;68313.53;5026904;28;20120;-76
2022/09/04 05:11:20;;;;;;;6.85;4.35;;;;;;;;;;5026439;28;20037;-77
2022/09/04 05:14:09;;;;;;;5.47;4.32;;;;;;;13.90;81.10;68323.06;5019194;28;20049;-77
2022/09/04 05:16:47;;;;;;;7.05;4.80;;;;;;;13.88;81.36;68318.09;5013031;28;20060;-77
2022/09/04 05:19:34;;;;;;;7.03;4.72;;;;;;;13.86;81.59;68313.13;5025772;28;20050;-77
2022/09/04 05:22:11;;;;;;;5.95;5.10;;;;;;;13.90;81.27;68318.25;5026415;28;20042;-76
2022/09/04 05:25:00;;;;;;;5.95;4.75;;;;;;;13.96;80.96;68325.09;5024437;28;21961;-77
2022/09/04 05:28:05;;;;;;;6.65;4.85;;;;;;;13.96;81.74;68330.44;5015284;28;20057;-77
2022/09/04 05:30:46;;;;;;;8.68;4.70;;;;;;;13.99;81.42;68331.19;5040547;28;20037;-77
2022/09/04 05:33:23;;;;;;;5.95;5.00;;;;;;;14.06;81.08;68335.91;5025545;28;20030;-78
2022/09/04 05:36:07;;;;;;;7.70;5.00;;;;;;;14.11;81.04;68341.59;5025318;28;20413;-76
2022/09/04 05:38:48;;;;;;;6.72;4.60;;;;;;;14.16;80.58;68347.28;5026050;28;20042;-77
2022/09/04 05:41:26;;;;;;;5.35;4.70;;;;;;;14.28;80.16;68359.81;5023615;28;20393;-77
2022/09/04 05:43:57;;;;;;;6.60;4.30;;;;;;;14.37;79.43;68370.03;5030619;28;20052;-77
2022/09/04 05:46:34;;;;;;;5.57;4.68;;;;;;;14.43;79.97;68379.56;5028670;28;20400;-76
2022/09/04 05:49:06;;;;;;;7.85;4.80;;;;;;;14.54;79.25;68389.41;5029995;28;20636;-77
2022/09/04 05:52:05;;;;;;;7.45;4.80;;;;;;;14.63;79.61;68402.34;5029962;28;20045;-77
2022/09/04 05:54:39;;;;;;;;;;;;;;;14.73;79.27;68412.59;5000678;28;20132;-76
2022/09/04 05:57:12;;;;;;;7.18;4.70;;;;;;;14.76;78.85;68416.59;5024434;28;19917;-76
2022/09/04 06:00:02;;;;;;;6.15;5.10;;;;;;;14.92;78.40;68433.66;5026876;28;20527;-76
2022/09/04 06:02:46;;;;;;;5.80;4.40;;;;;;;15.05;77.86;68445.78;5028810;28;20049;-76
2022/09/04 06:05:33;;;;;;;5.93;4.78;;;;;;;15.20;77.42;68467.66;5026529;28;20451;-76
2022/09/04 06:08:13;;;;;;;6.88;4.20;;;;;;;15.33;76.77;68482.47;5027684;28;20045;-76
2022/09/04 06:11:03;;;;;;;6.22;4.43;;;;;;;15.46;76.20;68491.91;5029052;28;20041;-77
2022/09/04 06:13:34;;;;;;;6.55;4.80;;;;;;;15.57;76.00;68504.44;5027770;28;20432;-76
2022/09/04 06:16:22;;;;;;;6.10;4.55;;;;;;;15.70;75.83;68524.06;5041870;28;20493;-77
2022/09/04 06:19:10;;;;;;;4.43;4.03;;;;;;;15.79;75.42;68528.97;5024194;28;20045;-77
2022/09/04 06:21:48;;;;;;;5.90;4.55;;;;;;;15.89;74.99;68539.22;5006112;28;20045;-76
2022/09/04 06:24:32;;;;;;;5.93;4.50;;;;;;;15.99;74.61;68551.19;5040201;28;20512;-77
2022/09/04 06:26:57;;;;;;;5.18;4.43;;;;;;;16.12;74.32;68567.56;5038227;28;20041;-77
2022/09/04 06:29:40;;;;;;;5.47;4.68;;;;;;;16.21;74.26;68575.13;5033742;28;20608;-76
2022/09/04 06:32:27;;;;;;;6.57;4.45;;;;;;;16.36;73.34;68592.22;5047659;28;20040;-76
2022/09/04 06:35:08;;;;;;;7.22;4.22;;;;;;;16.50;72.95;68607.06;5038294;28;20040;-77
2022/09/04 06:37:52;;;;;;;5.05;4.03;;;;;;;16.62;72.68;68620.72;5046796;28;20041;-77
2022/09/04 06:40:29;;;;;;;8.65;4.68;;;;;;;16.70;72.37;68629.84;5024303;28;20037;-77
2022/09/04 06:43:13;;;;;;;6.78;4.95;;;;;;;16.79;72.17;68639.56;5029004;28;20049;-76
2022/09/04 06:45:57;;;;;;;5.70;4.93;;;;;;;;;;5042552;28;20053;-76
2022/09/04 06:48:25;;;;;;;5.30;4.78;;;;;;;;;;5034396;28;20038;-76
2022/09/04 06:51:00;;;;;;;6.22;4.38;;;;;;;17.14;72.11;68674.09;5041647;28;20625;-77
2022/09/04 06:53:28;;;;;;;6.40;5.10;;;;;;;17.25;70.63;68686.09;5014177;28;20128;-76
2022/09/04 06:55:53;;;;;;;7.83;5.03;;;;;;;;;;5025725;28;20400;-77
2022/09/04 06:59:01;;;;;;;7.32;4.82;;;;;;;17.37;70.92;68704.59;5027715;28;20064;-77
2022/09/04 07:01:47;;;;;;;6.57;5.10;;;;;;;17.53;71.34;68722.28;5020012;28;20041;-77
2022/09/04 07:04:20;;;;;;;6.07;4.50;;;;;;;17.64;70.69;68734.28;5018902;28;20054;-77
2022/09/04 07:06:46;;;;;;;6.65;4.93;;;;;;;;;;5025553;28;20107;-77
2022/09/04 07:09:35;;;;;;;8.15;5.32;;;;;;;17.81;71.21;68748.88;5016481;28;20041;-78
2022/09/04 07:12:13;;;;;;;6.55;5.43;;;;;;;;;;5016728;28;20445;-77
2022/09/04 07:15:03;;;;;;;6.53;5.15;;;;;;;17.98;71.63;68773.09;5003326;28;20132;-78
2022/09/04 07:17:52;;;;;;;6.90;5.25;;;;;;;18.09;71.65;68785.06;5016886;28;20045;-77
2022/09/04 07:20:34;;;;;;;8.70;5.88;;;;;;;18.17;71.13;68788.81;5024349;28;20037;-78
2022/09/04 07:23:02;;;;;;;8.35;5.97;;;;;;;;;;5025276;28;20092;-77
2022/09/04 07:25:37;;;;;;;7.93;5.85;;;;;;;18.35;72.62;68813.63;5020910;28;20049;-77
2022/09/04 07:28:12;;;;;;;8.00;5.97;;;;;;;;;;5023842;28;20046;-77
2022/09/04 07:30:47;;;;;;;9.40;6.22;;;;;;;;;;5036591;28;20496;-77
2022/09/04 07:33:31;;;;;;;11.43;6.07;;;;;;;;;;5026179;28;20060;-78
2022/09/04 07:36:12;;;;;;;8.57;5.72;;;;;;;18.74;71.62;68851.66;5038472;28;20496;-77
2022/09/04 07:38:57;;;;;;;7.28;5.68;;;;;;;;;;5042162;28;20045;-77
2022/09/04 07:41:30;;;;;;;9.18;6.13;;;;;;;;;;5024677;28;20041;-77
2022/09/04 07:44:08;;;;;;;9.90;6.00;;;;;;;;;;5023624;28;20049;-76
2022/09/04 07:46:50;;;;;;;9.73;6.18;;;;;;;19.14;71.67;68902.72;5026257;28;20091;-77
2022/09/04 07:49:25;;;;;;;10.68;6.55;;;;;;;19.28;72.14;68909.50;5028551;28;20062;-77
2022/09/04 07:52:06;;;;;;;9.55;6.55;;;;;;;19.40;70.33;68925.91;5021381;28;20037;-77
2022/09/04 07:54:43;;;;;;;11.88;6.85;;;;;;;19.49;71.13;68935.59;5030025;28;20041;-78
2022/09/04 07:57:24;;;;;;;11.32;6.45;;;;;;;;;;5030706;28;20045;-78
2022/09/04 08:00:09;;;;;;;8.13;6.63;;;;;;;;;;5031020;28;20041;-77
2022/09/04 08:02:55;;;;;;;10.15;6.97;;;;;;;;;;5028840;28;20091;-77
2022/09/04 08:05:29;;;;;;;8.70;6.20;;;;;;;;;;5022800;28;20041;-77
2022/09/04 08:08:03;;;;;;;10.65;6.95;;;;;;;;;;5026317;28;20504;-77
2022/09/04 08:10:34;;;;;;;10.02;6.60;;;;;;;;;;5025497;28;20731;-77
2022/09/04 08:13:32;;;;;;;9.25;6.38;;;;;;;;;;5026662;28;20048;-76
2022/09/04 08:16:06;;;;;;;8.93;6.55;;;;;;;20.17;70.92;69011.63;5028044;28;20041;-77
2022/09/04 08:18:39;;;;;;;12.73;6.57;;;;;;;;;;5025326;28;20045;-77
2022/09/04 08:21:21;;;;;;;9.52;6.68;;;;;;;20.27;71.27;69029.03;5025879;28;20061;-77
2022/09/04 08:23:56;;;;;;;10.38;6.93;;;;;;;;;;5022220;28;20303;-77
2022/09/04 08:26:24;;;;;;;9.20;6.53;;;;;;;20.25;72.37;69020.78;5025989;28;20135;-77
2022/09/04 08:29:01;;;;;;;9.52;7.55;;;;;;;;;;5021522;28;20053;-77
2022/09/04 08:31:40;;;;;;;11.40;7.03;;;;;;;;;;5023654;28;20420;-76
2022/09/04 08:34:24;;;;;;;9.23;6.80;;;;;;;;;;5014977;28;20049;-77
2022/09/04 08:37:07;;;;;;;8.38;6.32;;;;;;;;;;5019099;28;20046;-78
2022/09/04 08:39:47;;;;;;;8.27;6.50;;;;;;;20.88;69.33;69091.13;5024075;28;20049;-77
2022/09/04 08:42:19;;;;;;;8.48;6.20;;;;;;;21.12;69.38;69123.44;5027172;28;20044;-77
2022/09/04 08:45:21;;;;;;;9.23;6.80;;;;;;;;;;5028116;28;20049;-77
2022/09/04 08:48:08;;;;;;;8.70;6.75;;;;;;;21.28;68.70;69141.16;4985657;28;20056;-77
2022/09/04 08:50:51;;;;;;;9.35;6.10;;;;;;;;;;5013695;28;20037;-77
2022/09/04 08:53:36;;;;;;;6.55;5.25;;;;;;;21.52;67.71;69162.66;5027991;28;20038;-77
2022/09/04 08:56:02;;;;;;;9.07;6.10;;;;;;;;;;5027093;28;20041;-77
2022/09/04 08:59:01;;;;;;;9.77;5.65;;;;;;;21.95;66.49;69208.59;5022616;28;20042;-77
2022/09/04 09:01:40;;;;;;;9.77;6.50;;;;;;;21.85;66.88;69199.84;5019219;28;20123;-77
2022/09/04 09:04:35;;;;;;;11.27;7.00;;;;;;;21.96;66.61;69217.88;5023294;28;20050;-77
2022/09/04 09:07:03;;;;;;;9.73;7.00;;;;;;;;;;5028833;28;20052;-77
2022/09/04 09:10:03;;;;;;;9.10;6.53;;;;;;;21.96;65.89;69209.19;5026282;28;20046;-77
2022/09/04 09:12:40;;;;;;;7.75;6.10;;;;;;;22.22;65.97;69247.09;5024255;28;20045;-77
2022/09/04 09:15:41;;;;;;;9.23;6.33;;;;;;;22.54;66.79;69282.59;5026921;28;20075;-77
2022/09/04 09:18:29;;;;;;;10.00;7.18;;;;;;;22.49;64.76;69269.28;5039961;28;20045;-77
2022/09/04 09:21:00;;;;;;;11.60;6.30;;;;;;;22.35;66.14;69255.97;5042682;28;20046;-77
2022/09/04 09:23:40;;;;;;;10.35;6.57;;;;;;;22.56;65.55;69284.28;5028626;28;20084;-76
2022/09/04 09:26:25;;;;;;;9.63;6.00;;;;;;;22.78;64.15;69309.50;5025463;28;20037;-77
2022/09/04 09:28:54;;;;;;;8.75;5.20;;;;;;;23.09;63.10;69339.03;5034204;28;20099;-77
2022/09/04 09:31:46;;;;;;;10.38;5.95;;;;;;;23.08;63.23;69332.47;5030110;28;20041;-77
2022/09/04 09:34:46;;;;;;;8.27;6.10;;;;;;;23.19;62.52;69350.50;5029909;28;20448;-76
2022/09/04 09:37:37;;;;;;;8.30;5.75;;;;;;;23.09;63.45;69339.03;5027697;28;20076;-76
2022/09/04 09:40:25;;;;;;;7.30;5.80;;;;;;;23.32;63.30;69361.53;5029645;28;20045;-76
2022/09/04 09:43:19;;;;;;;11.95;5.80;;;;;;;23.24;63.02;69349.63;5042886;28;20448;-77
2022/09/04 09:46:09;;;;;;;8.52;5.78;;;;;;;23.57;61.91;69392.91;5043059;28;20049;-76
2022/09/04 09:49:12;;;;;;;6.38;5.20;;;;;;;23.80;60.47;69418.13;5042338;28;20045;-76
2022/09/04 09:51:38;;;;;;;9.00;5.00;;;;;;;23.74;61.26;69408.53;5043674;28;20661;-76
2022/09/04 09:54:22;;;;;;;7.65;5.55;;;;;;;23.74;60.95;69409.13;5030587;28;20108;-77
2022/09/04 09:57:06;;;;;;;7.32;5.22;;;;;;;;;;5026476;28;20073;-77
2022/09/04 09:59:40;;;;;;;8.82;6.75;;;;;;;23.89;60.23;69425.72;5019358;28;20048;-77
2022/09/04 10:02:43;;;;;;;8.00;5.70;;;;;;;23.64;61.13;69397.63;5023608;28;20048;-77
2022/09/04 10:05:18;;;;;;;7.47;5.82;;;;;;;23.87;60.74;69426.16;5023616;28;20633;-76
2022/09/04 10:07:49;;;;;;;7.25;6.35;;;;;;;23.95;60.14;69435.31;5021932;28;20511;-77
2022/09/04 10:10:45;;;;;;;5.00;4.38;;;;;;;24.26;59.34;69467.00;5023119;28;20045;-76
2022/09/04 10:13:39;;;;;;;6.35;5.07;;;;;;;24.51;57.97;69495.69;5024861;28;20037;-76
2022/09/04 10:16:18;;;;;;;6.95;5.57;;;;;;;24.20;58.60;69462.84;5021774;28;20560;-77
2022/09/04 10:19:21;;;;;;;6.50;4.68;;;;;;;24.23;59.06;69466.28;5026064;28;20049;-78
2022/09/04 10:21:52;;;;;;;6.22;4.38;;;;;;;24.41;58.66;69486.34;5053690;28;20485;-78
2022/09/04 10:24:30;;;;;;;6.43;4.03;;;;;;;24.56;57.00;69497.56;5027947;28;20100;-78
2022/09/04 10:26:55;;;;;;;7.18;4.65;;;;;;;24.28;57.79;69472.00;5027305;28;20061;-78
2022/09/04 10:29:27;;;;;;;5.80;4.22;;;;;;;;;;5025943;28;20061;-78
2022/09/04 10:32:11;;;;;;;7.18;5.07;;;;;;;24.76;56.45;69523.22;5013597;28;20033;-78
2022/09/04 10:35:32;;;;;;;8.07;5.25;;;;;;;24.59;56.70;69506.44;5023662;28;20127;-78
2022/09/04 10:38:15;;;;;;;7.82;4.40;;;;;;;;;;4975827;28;20041;-78
2022/09/04 10:40:59;;;;;;;6.22;5.30;;;;;;;24.78;56.41;69525.50;5001825;28;20127;-78
2022/09/04 10:43:31;;;;;;;7.13;5.60;;;;;;;;;;5025552;28;20053;-78
2022/09/04 10:46:31;;;;;;;6.80;4.88;;;;;;;24.81;56.04;69531.09;5024660;28;20098;-78
2022/09/04 10:49:11;;;;;;;7.45;4.78;;;;;;;24.79;55.37;69528.81;5047017;28;20045;-78
2022/09/04 10:52:07;;;;;;;7.65;4.97;;;;;;;25.05;55.80;69558.03;5041246;28;20057;-78
2022/09/04 10:54:45;;;;;;;5.65;4.65;;;;;;;24.97;55.39;69549.44;5024502;28;20061;-78
2022/09/04 10:57:32;;;;;;;6.22;4.40;;;;;;;25.21;55.07;69573.72;5026610;28;20095;-78
2022/09/04 11:00:05;;;;;;;6.88;4.68;;;;;;;25.44;53.96;69600.09;5036653;28;20590;-77
2022/09/04 11:03:11;;;;;;;5.22;3.72;;;;;;;25.74;53.46;69635.53;5045102;28;22007;-78
2022/09/04 11:06:01;;;;;;;6.85;4.60;;;;;;;25.83;53.69;69646.44;5027042;28;20077;-77
2022/09/04 11:08:54;;;;;;;5.63;4.35;;;;;;;25.65;53.50;69625.78;5034001;28;20033;-78
2022/09/04 11:11:34;;;;;;;5.68;4.88;;;;;;;25.94;51.96;69655.78;5028638;28;20041;-77
2022/09/04 11:14:02;;;;;;;6.32;4.65;;;;;;;26.14;51.27;69677.59;5029118;28;20042;-78
2022/09/04 11:16:36;;;;;;;6.03;4.30;;;;;;;25.99;51.79;69664.25;5024096;28;20057;-77
2022/09/04 11:19:13;;;;;;;8.02;4.30;;;;;;;25.78;52.22;69635.25;5041116;28;20056;-78
2022/09/04 11:21:58;;;;;;;8.38;4.95;;;;;;;25.46;53.29;69604.53;5023218;28;20124;-79
2022/09/04 11:24:31;;;;;;;6.80;5.72;;;;;;;25.42;53.11;69597.78;5008401;28;20037;-78
2022/09/04 11:27:14;;;;;;;8.60;5.20;;;;;;;25.35;54.28;69591.94;5038972;28;20044;-78
2022/09/04 11:29:55;;;;;;;7.47;5.78;;;;;;;25.52;53.20;69610.84;5055866;28;20047;-77
2022/09/04 11:32:51;;;;;;;6.63;4.20;;;;;;;25.91;52.62;69655.06;5021224;28;20044;-78
2022/09/04 11:35:32;;;;;;;8.98;4.68;;;;;;;26.06;52.12;69666.25;5026193;28;20136;-78
2022/09/04 11:38:07;;;;;;;7.97;4.43;;;;;;;26.04;51.09;69669.41;5024469;28;20041;-79
2022/09/04 11:40:32;;;;;;;5.72;4.70;;;;;;;26.00;50.77;69662.66;5029931;28;20059;-77
2022/09/04 11:43:17;;;;;;;5.60;4.63;;;;;;;;;;5022364;28;20125;-77
2022/09/04 11:45:58;;;;;;;6.25;4.60;;;;;;;25.88;51.00;69652.19;5039357;28;20508;-79
2022/09/04 11:48:45;;;;;;;7.53;4.35;;;;;;;25.92;51.04;69653.47;5024653;28;20493;-79
2022/09/04 11:51:58;;;;;;;6.40;5.00;;;;;;;25.88;51.26;69652.19;5033786;28;20037;-77
2022/09/04 11:54:50;;;;;;;5.03;4.32;;;;;;;25.78;51.32;69635.25;5022547;28;20389;-79
2022/09/04 11:57:18;;;;;;;5.35;3.63;;;;;;;;;;5029492;28;20034;-79
2022/09/04 11:59:49;;;;;;;5.53;4.15;;;;;;;26.33;50.93;69699.97;5026101;28;20040;-79
2022/09/04 12:02:30;;;;;;;5.68;4.70;;;;;;;26.63;49.88;69735.44;5028523;28;20060;-78
2022/09/04 12:05:17;;;;;;;7.35;4.00;;;;;;;26.93;49.88;69766.59;5019868;28;20048;-79
2022/09/04 12:07:50;;;;;;;5.05;3.70;;;;;;;27.27;48.21;69807.25;5040273;28;20457;-78
2022/09/04 12:10:25;;;;;;;5.00;3.85;;;;;;;27.16;47.77;69795.19;5031649;28;20713;-79
2022/09/04 12:12:50;;;;;;;6.25;4.05;;;;;;;26.96;48.45;69767.31;5026049;28;20103;-79
2022/09/04 12:15:43;;;;;;;6.50;4.45;;;;;;;26.85;47.41;69754.69;5029667;28;20041;-79
2022/09/04 12:18:35;;;;;;;5.13;4.30;;;;;;;26.94;47.01;69770.47;5024031;28;20143;-81
2022/09/04 12:21:14;;;;;;;5.47;3.90;;;;;;;27.20;47.08;69797.06;5046458;28;20041;-79
2022/09/04 12:23:58;;;;;;;;;;;;;;;27.35;45.62;69811.56;5045012;28;20147;-78
2022/09/04 12:26:35;;;;;;;5.28;3.88;;;;;;;27.55;46.57;69838.84;5028780;28;20419;-80
2022/09/04 12:29:16;;;;;;;4.78;3.72;;;;;;;27.76;45.10;69862.41;5026012;28;20509;-80
2022/09/04 12:32:30;;;;;;;5.90;4.07;;;;;;;27.38;44.85;69817.16;5020673;28;20053;-80
2022/09/04 12:35:30;;;;;;;5.10;3.58;;;;;;;27.34;45.94;69809.84;5043520;28;20052;-79
2022/09/04 12:38:24;;;;;;;5.35;4.03;;;;;;;27.15;46.73;69791.28;5025040;28;20374;-79
2022/09/04 12:41:03;;;;;;;4.70;4.22;;;;;;;26.86;46.41;69758.56;5056701;28;20558;-78
2022/09/04 12:43:47;;;;;;;4.88;4.07;;;;;;;26.80;46.94;69759.88;5029855;28;20103;-77
2022/09/04 12:46:37;;;;;;;5.05;3.80;;;;;;;26.78;46.92;69749.94;5022773;28;20041;-78
2022/09/04 12:49:08;;;;;;;4.57;3.42;;;;;;;26.97;46.51;69769.03;5035034;28;20049;-78
2022/09/04 12:52:02;;;;;;;4.80;3.60;;;;;;;27.02;46.50;69779.69;5026086;28;20045;-78
2022/09/04 12:55:02;;;;;;;6.32;3.85;;;;;;;27.10;45.65;69782.81;5035935;28;20041;-80
2022/09/04 12:57:45;;;;;;;5.75;3.72;;;;;;;26.95;46.69;69769.47;5024188;28;20140;-79
2022/09/04 13:00:17;;;;;;;5.85;4.10;;;;;;;26.94;47.23;69771.06;5051612;28;20048;-78
2022/09/04 13:02:56;;;;;;;5.28;3.95;;;;;;;26.90;46.78;69760.41;5029994;28;20038;-77
2022/09/04 13:05:40;;;;;;;6.40;3.92;;;;;;;26.75;47.25;69747.06;5029688;28;20630;-77
2022/09/04 13:08:30;;;;;;;5.05;3.67;;;;;;;26.73;47.58;69746.94;5027959;28;20639;-78
2022/09/04 13:11:12;;;;;;;6.32;4.78;;;;;;;26.58;47.00;69727.53;5038912;28;20662;-77
2022/09/04 13:13:45;;;;;;;7.45;4.40;;;;;;;26.44;47.82;69708.72;5033209;28;20053;-77